Strona główna
METAR-TAF:

METAR-TAF

Lotnisko :

Roi Et, Tajlandia

Szerokość geograficzna: 16-07-00N, Długość geograficzna: 103-46-26E, wysokość: 138 m

Aktualna obserwacja pogody

Raport powstał 11 minut temu, godzina 23:00 UTC
Wiatr 4 kt od wschód
Temperatura 18°C
Wilgotność 77%
Ciśnienie 1016 hPa
Widzialność: 7000 m

METAR: VTUV 232300Z 08004KT 7000 NSC 18/14 Q1016 NOSIG

czas: 06:11 (23:11 UTC)

Prognoza

Raport powstał 6 godziny i 11 minut temu, godzina 17:00 UTC
Prognoza ważna od 23 godzina 18 UTC do 24 godzina 18 UTC
Wiatr 8 kt od wschodnio-północny wschód
Widzialność: 9000 m

TAF: VTUV 231700Z 2318/2418 07008KT 9000 NSC

Obserwacja i prognoza pogody dla ponad 4000 lotnisk (raport METAR i TAF).

Dostępne stacje oznaczono żółtymi i czerwonymi punktami na mapie.

Najedź kursorem aby zobaczyć nazwę stacji.

Kliknij aby zobaczyć obserwacje i prognozy pogody.

Aby zmienić mapę: kliknij na zielony przycisk z czarnym krzyżykiem, aby powiększyć; na zielony przycisk z myślnikiem, aby pomniejszyć; na zielone strzałki, aby przejść do map sąsiednich.


METAR-TAF: